Time;durP1;ratioP1;P1;durP2;ratioP2;P2;SDS_P1;SDS_P2;PMS_P1;PMS_P2;Temp;Humidity;BMP_temperature;BMP_pressure;BME280_temperature;BME280_humidity;BME280_pressure;Samples;Min_cycle;Max_cycle;Signal;HPM_P1;HPM_P2
2021/04/16 04:00:52;;;;;;;6.53;4.40;;;1.90;99.90;;;;;;5814386;23;20521;-65
2021/04/16 04:03:18;;;;;;;5.00;4.60;;;1.90;99.90;;;;;;5001403;28;20453;-65
2021/04/16 04:05:44;;;;;;;7.63;4.33;;;1.90;99.90;;;;;;5003806;28;20903;-64
2021/04/16 04:08:11;;;;;;;6.67;4.33;;;1.90;99.90;;;;;;5002698;28;20450;-64
2021/04/16 04:10:38;;;;;;;6.83;4.50;;;1.90;99.90;;;;;;4997926;28;20984;-64
2021/04/16 04:13:06;;;;;;;7.70;4.47;;;1.90;99.90;;;;;;4997473;28;20963;-64
2021/04/16 04:15:32;;;;;;;9.20;4.20;;;1.90;99.90;;;;;;4999148;28;20449;-64
2021/04/16 04:18:00;;;;;;;5.00;4.53;;;1.90;99.90;;;;;;4999017;28;20485;-64
2021/04/16 04:20:30;;;;;;;6.43;4.37;;;1.80;99.90;;;;;;4999496;28;20810;-64
2021/04/16 04:22:56;;;;;;;7.73;4.67;;;1.90;99.90;;;;;;4997883;28;20470;-63
2021/04/16 04:25:25;;;;;;;5.23;4.73;;;1.90;99.90;;;;;;5000427;28;20458;-62
2021/04/16 04:27:52;;;;;;;5.77;4.27;;;1.80;99.90;;;;;;4999969;28;20449;-63
2021/04/16 04:30:21;;;;;;;10.37;9.47;;;1.80;99.90;;;;;;4997504;28;20952;-65
2021/04/16 04:32:47;;;;;;;7.07;6.20;;;1.80;99.90;;;;;;4998807;28;20453;-64
2021/04/16 04:35:14;;;;;;;8.13;5.73;;;1.80;99.90;;;;;;4999577;28;20453;-64
2021/04/16 04:37:41;;;;;;;8.80;5.13;;;1.80;99.90;;;;;;4997735;28;20461;-64
2021/04/16 04:40:10;;;;;;;5.27;4.80;;;1.80;99.90;;;;;;4999363;28;20462;-64
2021/04/16 04:42:37;;;;;;;7.90;5.20;;;1.80;99.90;;;;;;5003031;28;20450;-63
2021/04/16 04:45:04;;;;;;;6.50;5.57;;;1.80;99.90;;;;;;4999081;28;20449;-64
2021/04/16 04:47:31;;;;;;;5.77;5.03;;;1.80;99.90;;;;;;4999333;28;20453;-64
2021/04/16 04:49:57;;;;;;;7.07;5.00;;;1.80;99.90;;;;;;4998540;28;20450;-63
2021/04/16 04:52:26;;;;;;;5.40;4.90;;;1.80;99.90;;;;;;4997759;28;20480;-64
2021/04/16 04:54:54;;;;;;;5.60;4.70;;;1.80;99.90;;;;;;5012283;28;20438;-64
2021/04/16 04:57:23;;;;;;;5.00;4.57;;;1.80;99.90;;;;;;5006440;28;20461;-64
2021/04/16 04:59:49;;;;;;;4.77;4.37;;;1.90;99.90;;;;;;4998369;28;20833;-64
2021/04/16 05:02:16;;;;;;;6.47;5.00;;;1.90;99.90;;;;;;4997888;28;20482;-63
2021/04/16 05:04:42;;;;;;;5.40;4.90;;;2.10;99.90;;;;;;4997950;28;20823;-64
2021/04/16 05:07:09;;;;;;;7.23;5.07;;;2.20;99.90;;;;;;4998171;28;20581;-64
2021/04/16 05:09:36;;;;;;;4.90;4.50;;;2.20;99.90;;;;;;4998354;28;20460;-64
2021/04/16 05:12:03;;;;;;;7.00;5.20;;;2.30;99.90;;;;;;4996942;28;20469;-64
2021/04/16 05:14:29;;;;;;;6.67;4.70;;;2.30;99.90;;;;;;4997049;28;20512;-63
2021/04/16 05:16:56;;;;;;;5.40;4.87;;;2.40;99.90;;;;;;4996394;28;20453;-64
2021/04/16 05:19:23;;;;;;;4.07;3.77;;;2.40;99.90;;;;;;4995593;28;20464;-64
2021/04/16 05:21:50;;;;;;;5.73;5.07;;;2.50;99.90;;;;;;4995589;28;20984;-64
2021/04/16 05:24:17;;;;;;;5.70;4.90;;;2.60;99.90;;;;;;4996576;28;20473;-63
2021/04/16 05:26:44;;;;;;;12.50;4.80;;;2.70;99.90;;;;;;4996611;28;20454;-64
2021/04/16 05:29:10;;;;;;;7.07;5.67;;;2.80;99.90;;;;;;4996927;28;20512;-65
2021/04/16 05:31:36;;;;;;;6.03;5.43;;;2.90;99.90;;;;;;4997056;28;20474;-63
2021/04/16 05:34:03;;;;;;;5.70;5.20;;;3.00;99.90;;;;;;4997206;28;20501;-62
2021/04/16 05:36:29;;;;;;;7.23;5.30;;;3.10;99.90;;;;;;5003389;28;20454;-64
2021/04/16 05:38:56;;;;;;;4.57;4.13;;;3.20;99.90;;;;;;5018626;28;20471;-63
2021/04/16 05:41:22;;;;;;;5.77;5.27;;;3.30;99.90;;;;;;5018738;28;20496;-63
2021/04/16 05:43:50;;;;;;;7.80;5.23;;;3.30;99.90;;;;;;5018368;28;20465;-65
2021/04/16 05:46:16;;;;;;;5.20;4.80;;;3.40;99.90;;;;;;5018411;28;20526;-63
2021/04/16 05:48:43;;;;;;;5.23;4.73;;;3.30;99.90;;;;;;5018345;28;20446;-64
2021/04/16 05:51:10;;;;;;;6.97;5.30;;;3.40;99.90;;;;;;5018151;28;20480;-63
2021/04/16 05:53:36;;;;;;;8.33;4.67;;;3.40;99.90;;;;;;5017945;28;20449;-62
2021/04/16 05:56:03;;;;;;;6.67;6.00;;;3.50;99.90;;;;;;5017071;28;20450;-63
2021/04/16 05:58:30;;;;;;;6.50;5.37;;;3.60;99.90;;;;;;5018118;28;20442;-62
2021/04/16 06:00:57;;;;;;;5.20;4.80;;;3.60;99.90;;;;;;5018397;28;20545;-64
2021/04/16 06:03:23;;;;;;;8.27;4.67;;;3.80;99.90;;;;;;5018295;28;20434;-64
2021/04/16 06:05:49;;;;;;;6.17;5.57;;;3.80;99.90;;;;;;5018410;28;20437;-62
2021/04/16 06:08:19;;;;;;;6.13;5.53;;;3.70;99.90;;;;;;5018145;28;20438;-62
2021/04/16 06:10:45;;;;;;;5.67;5.17;;;3.70;99.90;;;;;;5018119;28;20496;-63
2021/04/16 06:13:12;;;;;;;8.87;5.17;;;3.60;99.90;;;;;;5017655;28;20444;-63
2021/04/16 06:15:38;;;;;;;6.10;5.60;;;3.70;99.90;;;;;;5017824;28;20454;-63
2021/04/16 06:18:05;;;;;;;6.27;5.40;;;3.70;99.90;;;;;;5017773;28;20434;-63
2021/04/16 06:20:32;;;;;;;6.20;5.67;;;3.80;99.90;;;;;;5016399;28;20474;-62
2021/04/16 06:22:59;;;;;;;6.13;5.53;;;3.90;99.90;;;;;;5009199;28;20450;-63
2021/04/16 06:25:27;;;;;;;7.70;5.50;;;3.90;99.90;;;;;;4998229;28;20960;-63
2021/04/16 06:27:54;;;;;;;5.73;5.30;;;4.20;99.90;;;;;;5001898;28;20453;-63
2021/04/16 06:30:21;;;;;;;6.03;5.43;;;4.40;99.90;;;;;;5009140;28;20433;-63
2021/04/16 06:32:59;;;;;;;6.23;5.60;;;4.50;99.90;;;;;;5018400;28;20469;-62
2021/04/16 06:35:26;;;;;;;8.80;6.10;;;4.70;99.90;;;;;;5010085;28;20434;-63
2021/04/16 06:37:53;;;;;;;6.87;6.20;;;4.90;99.90;;;;;;5000329;28;20508;-63
2021/04/16 06:40:19;;;;;;;7.40;6.00;;;5.00;99.90;;;;;;5010448;28;20453;-62
2021/04/16 06:42:47;;;;;;;7.40;5.50;;;5.10;99.90;;;;;;4999700;28;20526;-63
2021/04/16 06:45:18;;;;;;;7.53;6.87;;;5.10;99.90;;;;;;4999608;28;20464;-64
2021/04/16 06:47:51;;;;;;;6.37;5.77;;;5.20;99.90;;;;;;4999617;28;20445;-64
2021/04/16 06:50:19;;;;;;;6.43;5.90;;;5.40;99.90;;;;;;4998756;28;20854;-65
2021/04/16 06:52:52;;;;;;;5.93;5.53;;;5.40;99.90;;;;;;4998786;28;20460;-65
2021/04/16 06:55:24;;;;;;;6.90;6.30;;;5.50;99.90;;;;;;4998688;28;20442;-65
2021/04/16 06:57:56;;;;;;;5.87;5.37;;;5.20;99.90;;;;;;4998967;28;20448;-65
2021/04/16 07:00:33;;;;;;;6.77;6.10;;;5.20;99.90;;;;;;4998510;28;20492;-65
2021/04/16 07:03:06;;;;;;;6.53;6.00;;;5.20;99.90;;;;;;4999473;28;20436;-64
2021/04/16 07:05:37;;;;;;;6.80;6.30;;;5.20;99.90;;;;;;4999320;28;20442;-65
2021/04/16 07:08:06;;;;;;;5.90;5.40;;;5.20;99.90;;;;;;5000786;28;20442;-65
2021/04/16 07:10:37;;;;;;;5.90;5.40;;;5.30;99.90;;;;;;4999336;28;20549;-65
2021/04/16 07:13:06;;;;;;;6.00;5.50;;;5.30;99.90;;;;;;4998399;28;20444;-65
2021/04/16 07:15:39;;;;;;;6.37;5.87;;;5.40;99.90;;;;;;4999164;28;20450;-67
2021/04/16 07:18:07;;;;;;;6.83;6.23;;;5.50;99.90;;;;;;4997857;28;20785;-65
2021/04/16 07:20:34;;;;;;;6.13;5.63;;;5.50;99.90;;;;;;4998790;28;20838;-64
2021/04/16 07:23:01;;;;;;;5.63;5.17;;;5.50;99.90;;;;;;4998300;28;20454;-66
2021/04/16 07:25:39;;;;;;;6.87;6.20;;;5.40;99.90;;;;;;4998822;28;20461;-66
2021/04/16 07:28:09;;;;;;;7.10;6.40;;;5.60;99.90;;;;;;4997745;28;20449;-70
2021/04/16 07:30:41;;;;;;;9.17;5.40;;;5.80;99.90;;;;;;4998262;28;20473;-66
2021/04/16 07:33:27;;;;;;;6.83;5.53;;;6.10;99.90;;;;;;4997844;28;20438;-67
2021/04/16 07:36:15;;;;;;;6.00;5.40;;;6.30;99.90;;;;;;4996959;28;20500;-66
2021/04/16 07:38:41;;;;;;;10.83;6.50;;;6.50;99.90;;;;;;4997640;28;20434;-66
2021/04/16 07:41:23;;;;;;;5.87;5.37;;;6.60;99.90;;;;;;4997874;28;20486;-65
2021/04/16 07:43:52;;;;;;;6.13;5.57;;;6.80;99.90;;;;;;4997001;28;20441;-66
2021/04/16 07:46:39;;;;;;;8.90;6.17;;;7.10;99.90;;;;;;4997691;28;20460;-65
2021/04/16 07:49:28;;;;;;;6.13;5.63;;;7.00;99.90;;;;;;4997425;28;20438;-66
2021/04/16 07:51:57;;;;;;;6.17;4.63;;;7.40;99.90;;;;;;4997265;28;20535;-66
2021/04/16 07:54:27;;;;;;;6.13;5.73;;;7.40;99.90;;;;;;4997272;28;20469;-65
2021/04/16 07:57:08;;;;;;;6.00;5.53;;;7.20;99.90;;;;;;4997378;28;20450;-65
2021/04/16 07:59:56;;;;;;;6.07;5.67;;;7.00;99.90;;;;;;5001114;28;20437;-69
2021/04/16 08:02:27;;;;;;;5.70;5.30;;;6.60;99.90;;;;;;5001503;28;20482;-66
2021/04/16 08:04:54;;;;;;;6.30;5.80;;;6.60;99.90;;;;;;4997015;28;20504;-66
2021/04/16 08:07:26;;;;;;;7.00;5.90;;;6.60;99.90;;;;;;4996645;28;20458;-66
2021/04/16 08:09:52;;;;;;;6.40;5.90;;;6.40;99.90;;;;;;4996723;28;20946;-66
2021/04/16 08:12:24;;;;;;;5.53;5.13;;;6.60;99.90;;;;;;4996595;28;20980;-66
2021/04/16 08:14:51;;;;;;;6.03;5.63;;;6.70;99.90;;;;;;4997641;28;20461;-66
2021/04/16 08:17:32;;;;;;;5.60;5.20;;;6.90;99.90;;;;;;5002053;28;20426;-66
2021/04/16 08:20:23;;;;;;;6.37;5.90;;;7.00;99.90;;;;;;5010606;28;20457;-65
2021/04/16 08:22:50;;;;;;;5.80;5.37;;;6.90;99.90;;;;;;4996708;28;20481;-66
2021/04/16 08:25:23;;;;;;;8.20;5.50;;;6.90;99.90;;;;;;4996242;28;20460;-66
2021/04/16 08:27:56;;;;;;;5.90;5.37;;;7.00;99.90;;;;;;4996910;28;20438;-66
2021/04/16 08:30:27;;;;;;;5.77;5.30;;;6.90;99.90;;;;;;4996692;28;20438;-66
2021/04/16 08:33:00;;;;;;;6.80;6.20;;;6.90;99.90;;;;;;4996575;28;20521;-66
2021/04/16 08:35:30;;;;;;;5.57;5.07;;;6.70;99.90;;;;;;4995723;28;20449;-66
2021/04/16 08:38:00;;;;;;;6.00;5.50;;;7.00;99.90;;;;;;4996304;28;20454;-64
2021/04/16 08:40:29;;;;;;;6.73;5.57;;;7.10;99.90;;;;;;4995932;28;20861;-64
2021/04/16 08:42:58;;;;;;;5.57;5.17;;;7.30;99.90;;;;;;4996381;28;20485;-64
2021/04/16 08:45:27;;;;;;;5.27;4.87;;;7.60;99.90;;;;;;4996120;28;20967;-64
2021/04/16 08:47:57;;;;;;;6.00;5.47;;;7.70;99.90;;;;;;4996236;28;20456;-64
2021/04/16 08:50:27;;;;;;;7.13;6.57;;;7.60;99.90;;;;;;4996125;28;20528;-65
2021/04/16 08:52:56;;;;;;;5.90;5.40;;;7.50;99.90;;;;;;4996044;28;20932;-65
2021/04/16 08:55:28;;;;;;;6.90;6.40;;;7.40;99.90;;;;;;4996183;28;20488;-64
2021/04/16 08:58:00;;;;;;;5.97;5.57;;;7.30;99.90;;;;;;4996170;28;20438;-64
2021/04/16 09:00:34;;;;;;;6.47;5.97;;;7.00;99.90;;;;;;4996372;28;20442;-64
2021/04/16 09:03:03;;;;;;;6.30;5.70;;;6.70;99.90;;;;;;4996154;28;20469;-64
2021/04/16 09:05:33;;;;;;;6.70;6.00;;;6.60;99.90;;;;;;4995538;28;20450;-64
2021/04/16 09:08:16;;;;;;;5.90;5.50;;;6.40;99.90;;;;;;4995479;28;20968;-63
2021/04/16 09:10:46;;;;;;;6.93;6.43;;;6.40;99.90;;;;;;4997717;28;20469;-65
2021/04/16 09:13:56;;;;;;;6.47;5.90;;;6.50;99.90;;;;;;5001855;28;20480;-65
2021/04/16 09:16:36;;;;;;;5.87;5.47;;;6.50;99.90;;;;;;4996421;28;20528;-64
2021/04/16 09:19:39;;;;;;;6.27;5.77;;;6.60;99.90;;;;;;4996073;28;20485;-65
2021/04/16 09:22:23;;;;;;;6.47;5.87;;;6.60;99.90;;;;;;4995851;28;20488;-64
2021/04/16 09:24:52;;;;;;;6.30;5.87;;;6.60;99.90;;;;;;4995967;28;20904;-64
2021/04/16 09:27:35;;;;;;;7.13;6.53;;;6.50;99.90;;;;;;4995652;28;20846;-64
2021/04/16 09:30:32;;;;;;;7.50;6.90;;;6.60;99.90;;;;;;4995251;28;20442;-64
2021/04/16 09:33:18;;;;;;;6.50;6.00;;;6.70;99.90;;;;;;5001263;28;20524;-65
2021/04/16 09:36:02;;;;;;;7.40;6.77;;;7.00;99.90;;;;;;4998364;28;20457;-63
2021/04/16 09:38:32;;;;;;;6.43;5.93;;;7.30;99.90;;;;;;4995877;28;20439;-64
2021/04/16 09:41:34;;;;;;;7.93;6.67;;;7.40;99.90;;;;;;4995908;28;20470;-63
2021/04/16 09:44:21;;;;;;;5.87;5.47;;;7.50;99.90;;;;;;4995467;28;20448;-64
2021/04/16 09:46:49;;;;;;;6.40;5.90;;;7.40;99.90;;;;;;4996518;28;20795;-64
2021/04/16 09:49:35;;;;;;;6.77;6.27;;;7.10;99.90;;;;;;4996425;28;20458;-64
2021/04/16 09:52:40;;;;;;;6.73;6.23;;;6.90;99.90;;;;;;4996326;28;20531;-64
2021/04/16 09:55:39;;;;;;;7.20;6.60;;;7.00;99.90;;;;;;4994203;28;20458;-64
2021/04/16 09:58:05;;;;;;;8.97;5.93;;;7.00;99.90;;;;;;4969936;28;20944;-65
2021/04/16 10:00:36;;;;;;;6.40;5.80;;;6.90;99.90;;;;;;4996135;28;20454;-65
2021/04/16 10:03:26;;;;;;;6.60;6.20;;;6.90;99.90;;;;;;4995241;28;20585;-65
2021/04/16 10:05:53;;;;;;;6.77;6.23;;;6.80;99.90;;;;;;4994546;28;20588;-64
2021/04/16 10:08:25;;;;;;;6.10;5.53;;;7.00;99.90;;;;;;4996275;28;20450;-64
2021/04/16 10:10:52;;;;;;;6.17;5.70;;;7.20;99.90;;;;;;4996237;28;20473;-65
2021/04/16 10:13:23;;;;;;;5.93;5.47;;;7.50;99.90;;;;;;4995093;28;20458;-65
2021/04/16 10:15:52;;;;;;;6.43;5.83;;;7.80;99.90;;;;;;4995465;28;20504;-65
2021/04/16 10:18:31;;;;;;;6.13;5.63;;;7.80;99.90;;;;;;4995940;28;20444;-65
2021/04/16 10:21:03;;;;;;;7.93;6.00;;;7.90;99.90;;;;;;5003519;28;20500;-64
2021/04/16 10:23:34;;;;;;;6.63;5.80;;;8.20;99.90;;;;;;4999446;28;20438;-63
2021/04/16 12:38:48;;;;;;;4.40;4.00;;;9.00;99.90;;;;;;4999276;28;20479;-64
2021/04/16 12:41:17;;;;;;;3.87;3.60;;;8.70;99.90;;;;;;5001969;28;20489;-64
2021/04/16 12:43:45;;;;;;;4.63;4.33;;;8.80;99.90;;;;;;4997725;28;20461;-65
2021/04/16 12:46:14;;;;;;;3.70;3.50;;;9.00;99.90;;;;;;4997185;28;20937;-63
2021/04/16 12:48:41;;;;;;;4.00;3.80;;;8.80;99.90;;;;;;4996166;28;20481;-64
2021/04/16 12:51:07;;;;;;;4.30;4.00;;;8.80;99.90;;;;;;4995937;28;20474;-65
2021/04/16 12:53:33;;;;;;;4.87;4.47;;;8.80;99.90;;;;;;4996410;28;20461;-64
2021/04/16 12:55:59;;;;;;;4.43;4.03;;;9.00;99.90;;;;;;4996744;28;20457;-64
2021/04/16 12:58:28;;;;;;;6.37;4.70;;;9.10;99.90;;;;;;4996746;28;20457;-65
2021/04/16 13:00:57;;;;;;;4.30;3.90;;;8.80;99.90;;;;;;4995481;28;20539;-64
2021/04/16 13:03:29;;;;;;;3.70;3.40;;;8.90;99.90;;;;;;4996359;28;20450;-64
2021/04/16 13:05:57;;;;;;;4.33;3.93;;;8.90;99.90;;;;;;4996407;28;20438;-64
2021/04/16 13:08:23;;;;;;;3.23;3.03;;;8.90;99.90;;;;;;4996163;28;20460;-65
2021/04/16 13:10:50;;;;;;;3.50;3.20;;;8.80;99.90;;;;;;4995724;28;20829;-64
2021/04/16 13:13:16;;;;;;;3.23;3.03;;;8.80;99.90;;;;;;4995596;28;20485;-64
2021/04/16 13:15:43;;;;;;;3.67;3.40;;;8.60;99.90;;;;;;4996886;28;20454;-64
2021/04/16 13:18:16;;;;;;;4.90;2.97;;;8.70;99.90;;;;;;4996230;28;20454;-64
2021/04/16 13:20:46;;;;;;;2.97;2.80;;;8.80;99.90;;;;;;4998792;28;20469;-63
2021/04/16 13:23:14;;;;;;;3.17;2.97;;;9.00;99.40;;;;;;5015386;28;20469;-63
2021/04/16 13:25:40;;;;;;;2.80;2.70;;;9.10;99.90;;;;;;5018760;28;20454;-63
2021/04/16 13:28:06;;;;;;;3.40;3.20;;;9.30;99.60;;;;;;5018760;28;20513;-65
2021/04/16 13:30:32;;;;;;;3.33;3.13;;;9.40;99.90;;;;;;4997586;28;20528;-64
2021/04/16 13:33:02;;;;;;;3.00;2.80;;;9.60;99.90;;;;;;4996582;28;20449;-64
2021/04/16 13:35:32;;;;;;;3.77;3.43;;;9.70;98.40;;;;;;4996579;28;20457;-63
2021/04/16 13:38:01;;;;;;;2.77;2.67;;;9.80;98.90;;;;;;4996130;28;20458;-64
2021/04/16 13:40:29;;;;;;;2.60;2.40;;;9.90;96.70;;;;;;4995329;28;20465;-63
2021/04/16 13:42:55;;;;;;;3.47;2.90;;;9.60;97.40;;;;;;4994817;28;20477;-62
2021/04/16 13:45:21;;;;;;;2.70;2.60;;;9.50;96.80;;;;;;4994778;28;20462;-63
2021/04/16 13:47:48;;;;;;;2.70;2.50;;;9.40;96.30;;;;;;4995438;28;20872;-62
2021/04/16 13:50:17;;;;;;;2.57;2.47;;;9.60;96.60;;;;;;4996635;28;20816;-64
2021/04/16 13:52:44;;;;;;;2.30;2.20;;;9.70;96.80;;;;;;4994627;28;20813;-64
2021/04/16 13:55:12;;;;;;;3.40;2.30;;;9.90;96.00;;;;;;4994656;28;20453;-63
2021/04/16 13:57:40;;;;;;;2.27;2.10;;;10.10;95.60;;;;;;4994495;28;20458;-64
2021/04/16 14:00:08;;;;;;;2.70;2.50;;;10.20;95.60;;;;;;4996349;28;20481;-64
2021/04/16 14:02:37;;;;;;;2.30;2.20;;;10.60;94.10;;;;;;4994112;28;21112;-64
2021/04/16 14:05:05;;;;;;;2.40;2.30;;;10.70;94.10;;;;;;4994671;28;20545;-64
2021/04/16 14:07:32;;;;;;;2.13;2.03;;;10.70;93.70;;;;;;4994450;28;20454;-64
2021/04/16 14:09:58;;;;;;;2.80;2.70;;;10.70;93.00;;;;;;4994818;28;20581;-65
2021/04/16 14:12:24;;;;;;;3.10;2.93;;;10.70;91.70;;;;;;5007701;28;20466;-64
2021/04/16 14:14:51;;;;;;;2.80;2.60;;;10.70;93.10;;;;;;5002822;28;20858;-65
2021/04/16 14:17:24;;;;;;;2.00;2.00;;;10.60;91.70;;;;;;4995047;28;20450;-64
2021/04/16 14:19:53;;;;;;;3.17;2.37;;;10.10;92.40;;;;;;4997042;28;20449;-65
2021/04/16 14:22:26;;;;;;;2.53;2.33;;;9.80;93.50;;;;;;4995739;28;20532;-64
2021/04/16 14:24:53;;;;;;;2.30;2.20;;;9.70;94.20;;;;;;4994775;28;20485;-64
2021/04/16 14:27:19;;;;;;;2.93;2.83;;;9.70;95.00;;;;;;4994497;28;20524;-64
2021/04/16 14:29:45;;;;;;;2.63;2.53;;;9.70;94.00;;;;;;4994191;28;20458;-64
2021/04/16 14:32:13;;;;;;;2.57;2.47;;;9.70;93.20;;;;;;4994781;28;20496;-65
2021/04/16 14:34:40;;;;;;;2.40;2.30;;;9.60;93.40;;;;;;4994266;28;20473;-65
2021/04/16 14:37:07;;;;;;;2.63;2.53;;;9.30;94.40;;;;;;4998102;28;20461;-64
2021/04/16 14:39:33;;;;;;;2.70;2.50;;;9.30;93.60;;;;;;5000552;28;20454;-64
2021/04/16 14:42:01;;;;;;;3.53;3.07;;;9.30;94.40;;;;;;4996106;28;20488;-65
2021/04/16 14:44:28;;;;;;;2.80;2.60;;;9.20;94.60;;;;;;4995306;28;20836;-65
2021/04/16 14:46:55;;;;;;;2.43;2.33;;;9.20;95.30;;;;;;4994818;28;20457;-65
2021/04/16 14:49:27;;;;;;;3.30;3.10;;;9.30;94.80;;;;;;4994555;28;20457;-65
2021/04/16 14:51:54;;;;;;;3.07;2.93;;;9.30;95.00;;;;;;4994505;28;20883;-64
2021/04/16 14:54:25;;;;;;;2.90;2.67;;;9.30;95.20;;;;;;4998346;28;20457;-64
2021/04/16 14:56:51;;;;;;;2.37;2.17;;;9.40;95.70;;;;;;4999148;28;20449;-65
2021/04/16 14:59:24;;;;;;;2.80;2.60;;;9.20;95.90;;;;;;4999636;28;20794;-65
2021/04/16 15:01:51;;;;;;;2.60;2.50;;;9.00;95.80;;;;;;4998200;28;20485;-65
2021/04/16 15:04:18;;;;;;;3.17;2.97;;;8.90;96.30;;;;;;4998482;28;20457;-65
2021/04/16 15:06:46;;;;;;;3.50;3.20;;;8.90;97.10;;;;;;5003620;28;20454;-65
2021/04/16 15:09:15;;;;;;;3.47;3.27;;;8.70;98.00;;;;;;5011899;28;20454;-65
2021/04/16 15:11:44;;;;;;;3.97;3.63;;;8.60;98.20;;;;;;4998499;28;20469;-65
2021/04/16 15:14:14;;;;;;;3.20;3.00;;;8.50;98.20;;;;;;4997724;28;20453;-65
2021/04/16 15:16:43;;;;;;;3.70;3.50;;;8.50;98.80;;;;;;4997870;28;20445;-65
2021/04/16 15:19:10;;;;;;;3.93;3.63;;;8.30;99.20;;;;;;4997696;28;20458;-65
2021/04/16 15:21:37;;;;;;;3.43;3.23;;;8.10;99.90;;;;;;4997524;28;20482;-65
2021/04/16 15:24:05;;;;;;;3.70;3.50;;;8.00;99.90;;;;;;4997326;28;20523;-64
2021/04/16 15:26:32;;;;;;;3.63;3.33;;;8.00;99.90;;;;;;4997625;28;20457;-64
2021/04/16 15:29:01;;;;;;;3.40;3.20;;;8.00;99.90;;;;;;4997526;28;20948;-65
2021/04/16 15:31:31;;;;;;;3.47;3.27;;;7.80;99.90;;;;;;4997381;28;20473;-64
2021/04/16 15:47:35;;;;;;;3.67;3.20;;;7.90;99.90;;;;;;5002103;28;20421;-65
2021/04/16 15:50:01;;;;;;;3.27;3.07;;;7.80;99.90;;;;;;4999738;28;20533;-65
2021/04/16 15:52:28;;;;;;;4.30;4.00;;;7.70;99.90;;;;;;5006118;28;20477;-65
2021/04/16 15:54:55;;;;;;;4.37;4.07;;;7.70;99.90;;;;;;4997626;28;20458;-64
2021/04/16 15:57:21;;;;;;;3.97;3.60;;;7.70;99.90;;;;;;4997765;28;20461;-66
2021/04/16 15:59:48;;;;;;;3.67;3.47;;;7.60;99.90;;;;;;4997500;28;20967;-64
2021/04/16 16:02:16;;;;;;;3.13;2.93;;;7.60;99.90;;;;;;4997390;28;20489;-65
2021/04/16 16:04:43;;;;;;;4.07;3.77;;;7.60;99.90;;;;;;4996983;28;20453;-64
2021/04/16 16:07:09;;;;;;;3.03;2.83;;;7.50;99.90;;;;;;4996837;28;20464;-64
2021/04/16 16:09:35;;;;;;;3.83;3.40;;;7.40;99.90;;;;;;4996888;28;20540;-63
2021/04/16 16:12:07;;;;;;;3.00;2.90;;;7.30;99.90;;;;;;4996844;28;20477;-65
2021/04/16 16:14:35;;;;;;;3.10;2.90;;;7.40;99.90;;;;;;4997413;28;20442;-64
2021/04/16 16:17:04;;;;;;;2.77;2.67;;;7.30;99.90;;;;;;4996894;28;20458;-64
2021/04/16 16:19:31;;;;;;;3.67;3.47;;;7.30;99.90;;;;;;4996886;28;20456;-65
2021/04/16 16:21:57;;;;;;;3.40;3.20;;;7.30;99.90;;;;;;4996889;28;20511;-65
2021/04/16 16:24:24;;;;;;;2.67;2.57;;;7.30;99.90;;;;;;4997052;28;20533;-64
2021/04/16 16:26:51;;;;;;;3.40;3.00;;;7.20;99.90;;;;;;4996672;28;20449;-64
2021/04/16 16:29:22;;;;;;;3.40;3.20;;;7.30;99.90;;;;;;4996864;28;20453;-64
2021/04/16 16:31:49;;;;;;;5.83;3.27;;;7.30;99.90;;;;;;4997013;28;20809;-63
2021/04/16 16:34:16;;;;;;;3.67;3.37;;;7.40;99.90;;;;;;4996673;28;20461;-65
2021/04/16 16:36:42;;;;;;;2.63;2.50;;;7.80;99.90;;;;;;4996972;28;20506;-65
2021/04/16 16:39:08;;;;;;;3.80;3.50;;;8.00;99.90;;;;;;4996282;28;20458;-65
2021/04/16 16:41:36;;;;;;;3.50;3.30;;;8.00;99.90;;;;;;4997258;28;20481;-65
2021/04/16 16:44:04;;;;;;;4.30;4.00;;;8.00;99.90;;;;;;4996899;28;20484;-66
2021/04/16 16:46:35;;;;;;;4.93;3.83;;;7.80;99.90;;;;;;4996223;28;20458;-64
2021/04/16 16:49:02;;;;;;;4.33;3.63;;;7.80;99.90;;;;;;4997243;28;20438;-65
2021/04/16 16:51:30;;;;;;;5.23;3.47;;;7.70;99.90;;;;;;4995772;28;20518;-65
2021/04/16 16:53:59;;;;;;;3.70;3.40;;;7.70;99.90;;;;;;4996105;28;20462;-65
2021/04/16 16:56:29;;;;;;;4.40;4.07;;;7.70;99.90;;;;;;4996087;28;20545;-65
2021/04/16 16:58:56;;;;;;;3.57;3.30;;;7.60;99.90;;;;;;4995976;28;20442;-65
2021/04/16 17:01:24;;;;;;;4.20;3.80;;;7.60;99.90;;;;;;4995604;28;20481;-65
2021/04/16 17:03:52;;;;;;;4.70;4.30;;;7.60;99.90;;;;;;4996450;28;20450;-65
2021/04/16 17:06:20;;;;;;;3.43;3.20;;;7.60;99.90;;;;;;4996642;28;20457;-64
2021/04/16 17:08:46;;;;;;;2.70;2.60;;;7.40;99.90;;;;;;4996459;28;20868;-64
2021/04/16 17:11:15;;;;;;;3.33;3.20;;;7.40;99.90;;;;;;4995848;28;20614;-65
2021/04/16 17:13:41;;;;;;;3.70;3.40;;;7.40;99.90;;;;;;4995334;28;20458;-66
2021/04/16 17:16:09;;;;;;;3.37;3.20;;;7.30;99.90;;;;;;4996747;28;20458;-64
2021/04/16 17:18:36;;;;;;;3.70;3.40;;;7.30;99.90;;;;;;5003768;28;20443;-66
2021/04/16 17:21:05;;;;;;;4.10;3.67;;;7.30;99.90;;;;;;4997931;28;20477;-66
2021/04/16 17:23:32;;;;;;;3.40;3.20;;;7.30;99.90;;;;;;4996771;28;20481;-66
2021/04/16 17:25:58;;;;;;;4.53;3.40;;;7.30;99.90;;;;;;4996620;28;20438;-66
2021/04/16 17:28:26;;;;;;;3.87;3.67;;;7.20;99.90;;;;;;4996549;28;20458;-65
2021/04/16 17:30:53;;;;;;;4.10;3.80;;;7.20;99.90;;;;;;4996077;28;20504;-68
2021/04/16 17:33:21;;;;;;;3.80;3.60;;;7.20;99.90;;;;;;4996353;28;20445;-65
2021/04/16 17:35:47;;;;;;;4.13;3.93;;;7.20;99.90;;;;;;4995654;28;20454;-65
2021/04/16 17:38:14;;;;;;;4.50;4.20;;;7.20;99.90;;;;;;4997615;28;20461;-65
2021/04/16 17:40:41;;;;;;;3.77;3.57;;;7.10;99.90;;;;;;4996733;28;20481;-65
2021/04/16 17:43:10;;;;;;;4.20;3.90;;;7.20;99.90;;;;;;4996185;28;20482;-65
2021/04/16 17:45:38;;;;;;;4.13;3.83;;;7.20;99.90;;;;;;4996992;28;20453;-64
2021/04/16 17:48:07;;;;;;;5.60;4.30;;;7.00;99.90;;;;;;4995250;28;21039;-66
2021/04/16 17:50:36;;;;;;;5.03;4.40;;;7.10;99.90;;;;;;4994537;28;20824;-66
2021/04/16 17:53:02;;;;;;;4.00;3.70;;;7.00;99.90;;;;;;4996036;28;20449;-65
2021/04/16 17:55:30;;;;;;;3.97;3.67;;;7.10;99.90;;;;;;4996048;28;20461;-66
2021/04/16 17:57:56;;;;;;;3.63;3.43;;;7.00;99.90;;;;;;4996052;28;20464;-66
2021/04/16 18:00:25;;;;;;;4.33;4.13;;;7.10;99.90;;;;;;4995278;28;20480;-67
2021/04/16 18:02:52;;;;;;;4.50;3.53;;;7.10;99.90;;;;;;4994813;28;20462;-67
2021/04/16 18:05:20;;;;;;;3.93;3.63;;;7.10;99.90;;;;;;4994965;28;20473;-66
2021/04/16 18:07:49;;;;;;;3.37;3.20;;;7.20;99.90;;;;;;4994945;28;20952;-66
2021/04/16 18:10:17;;;;;;;4.70;4.27;;;7.20;99.90;;;;;;4995041;28;20453;-65
2021/04/16 18:12:45;;;;;;;4.10;3.80;;;7.10;99.90;;;;;;4994974;28;20458;-65
2021/04/16 18:15:12;;;;;;;5.03;4.20;;;7.10;99.90;;;;;;4994938;28;20457;-66
2021/04/16 18:17:39;;;;;;;4.73;4.17;;;7.10;99.90;;;;;;4995282;28;20454;-65
2021/04/16 18:20:07;;;;;;;6.43;5.00;;;7.10;99.90;;;;;;4996185;28;20472;-65
2021/04/16 18:22:38;;;;;;;4.77;4.37;;;7.00;99.90;;;;;;4996654;28;20486;-66
2021/04/16 18:25:13;;;;;;;4.37;4.07;;;7.00;99.90;;;;;;4996230;28;20963;-66
2021/04/16 18:27:40;;;;;;;4.47;4.17;;;6.90;99.90;;;;;;4997287;28;20441;-65
2021/04/16 18:30:09;;;;;;;5.07;4.77;;;6.80;99.90;;;;;;5000015;28;20464;-65
2021/04/16 18:32:36;;;;;;;5.63;5.13;;;6.80;99.90;;;;;;4999976;28;20474;-66
2021/04/16 18:35:03;;;;;;;5.40;4.87;;;6.70;99.90;;;;;;4999692;28;20461;-66
2021/04/16 18:37:30;;;;;;;5.70;5.30;;;6.70;99.90;;;;;;4999622;28;20453;-66
2021/04/16 18:39:59;;;;;;;5.17;4.87;;;6.70;99.90;;;;;;5000071;28;20929;-65
2021/04/16 18:42:25;;;;;;;5.53;5.13;;;6.70;99.90;;;;;;4999251;28;20512;-65
2021/04/16 18:44:54;;;;;;;6.20;5.70;;;6.80;99.90;;;;;;4999207;28;20517;-66
2021/04/16 18:47:22;;;;;;;4.93;4.63;;;6.80;99.90;;;;;;4999853;28;20458;-65
2021/04/16 18:49:49;;;;;;;5.40;5.00;;;6.70;99.90;;;;;;4999725;28;20819;-69
2021/04/16 18:52:25;;;;;;;6.47;4.87;;;6.60;99.90;;;;;;5007416;28;20474;-70
2021/04/16 18:54:53;;;;;;;4.90;4.60;;;6.60;99.90;;;;;;5006975;28;20492;-69
2021/04/16 18:57:20;;;;;;;4.70;4.40;;;6.60;99.90;;;;;;5000588;28;20487;-68
2021/04/16 18:59:46;;;;;;;5.10;4.70;;;6.50;99.90;;;;;;4999964;28;20438;-69
2021/04/16 19:02:12;;;;;;;5.90;4.40;;;6.60;99.90;;;;;;4998391;28;20486;-68
2021/04/16 19:04:39;;;;;;;4.40;4.10;;;6.60;99.90;;;;;;4999683;28;20457;-70
2021/04/16 19:07:09;;;;;;;4.97;4.57;;;6.60;99.90;;;;;;4998917;28;20812;-70
2021/04/16 19:09:41;;;;;;;5.88;4.50;;;6.60;99.90;;;;;;4998275;28;20464;-69
2021/04/16 19:12:08;;;;;;;4.90;4.50;;;6.60;99.90;;;;;;4998913;28;20705;-68
2021/04/16 19:14:35;;;;;;;4.80;4.43;;;6.60;99.90;;;;;;4999310;28;20480;-68
2021/04/16 19:17:03;;;;;;;4.97;4.37;;;6.50;99.90;;;;;;4999153;28;20457;-69
2021/04/16 19:19:29;;;;;;;5.87;5.27;;;6.50;99.90;;;;;;4999307;28;20457;-68
2021/04/16 19:21:59;;;;;;;5.37;4.87;;;6.50;99.90;;;;;;4998783;28;20481;-69
2021/04/16 19:24:30;;;;;;;5.03;4.70;;;6.60;99.90;;;;;;4999954;28;20790;-69
2021/04/16 19:26:58;;;;;;;4.30;3.73;;;6.50;99.90;;;;;;4998432;28;20461;-69
2021/04/16 19:29:25;;;;;;;4.37;3.97;;;6.50;99.90;;;;;;4998662;28;20462;-68
2021/04/16 19:31:53;;;;;;;4.23;3.93;;;6.50;99.90;;;;;;4998508;28;20518;-69
2021/04/16 19:34:20;;;;;;;4.67;4.37;;;6.50;99.90;;;;;;4999006;28;20460;-68
2021/04/16 19:36:50;;;;;;;5.77;4.30;;;6.50;99.90;;;;;;4999462;28;20508;-70